createdAt,value
2022-10-19T00:01:10.952Z,98832.31
2022-10-19T00:03:38.078Z,98825.78
2022-10-19T00:06:14.302Z,98838.44
2022-10-19T00:08:42.440Z,98827.19
2022-10-19T00:11:10.039Z,98839.25
2022-10-19T00:13:45.790Z,98841.16
2022-10-19T00:16:15.838Z,98823.56
2022-10-19T00:18:43.937Z,98828.44
2022-10-19T00:21:13.683Z,98830.28
2022-10-19T00:23:41.304Z,98825.59
2022-10-19T00:26:08.297Z,98822.94
2022-10-19T00:28:35.964Z,98811.22
2022-10-19T00:31:08.270Z,98819.13
2022-10-19T00:33:35.334Z,98823.28
2022-10-19T00:36:02.650Z,98826.09
2022-10-19T00:38:29.699Z,98804.84
2022-10-19T00:40:56.585Z,98824.78
2022-10-19T00:43:26.400Z,98816.66
2022-10-19T00:45:53.577Z,98805.84
2022-10-19T00:48:28.384Z,98809.41
2022-10-19T00:50:56.965Z,98796.41
2022-10-19T00:53:26.874Z,98796.50
2022-10-19T00:55:54.844Z,98809.97
2022-10-19T00:58:21.807Z,98762.06
2022-10-19T01:00:48.925Z,98793.84
2022-10-19T01:03:16.070Z,98784.47
2022-10-19T01:05:43.401Z,98778.66
2022-10-19T01:08:11.551Z,98784.59
2022-10-19T01:11:12.295Z,98800.69
2022-10-19T01:13:57.058Z,98787.41
2022-10-19T01:16:49.988Z,98788.28
2022-10-19T01:19:33.827Z,98804.44
2022-10-19T01:22:20.406Z,98793.28
2022-10-19T01:25:05.596Z,98774.34
2022-10-19T01:27:53.298Z,98778.16
2022-10-19T01:30:37.984Z,98791.06
2022-10-19T01:33:07.547Z,98774.34
2022-10-19T01:35:43.390Z,98773.50
2022-10-19T01:38:26.726Z,98753.69
2022-10-19T01:41:17.743Z,98749.13
2022-10-19T01:43:53.796Z,98762.63
2022-10-19T01:46:38.041Z,98747.63
2022-10-19T01:49:19.241Z,98749.63
2022-10-19T01:51:53.101Z,98742.94
2022-10-19T01:54:23.299Z,98760.97
2022-10-19T01:56:52.400Z,98725.06
2022-10-19T01:59:21.418Z,98746.59
2022-10-19T02:01:51.121Z,98726.78
2022-10-19T02:04:21.348Z,98734.78
2022-10-19T02:06:50.540Z,98727.19
2022-10-19T02:09:17.781Z,98738.44
2022-10-19T02:11:57.282Z,98622.09
2022-10-19T02:14:30.801Z,98710.16
2022-10-19T02:17:10.044Z,98714.22
2022-10-19T02:19:38.416Z,98693.72
2022-10-19T02:22:06.184Z,98719.50
2022-10-19T02:24:33.014Z,98692.59
2022-10-19T02:27:00.530Z,98654.78
2022-10-19T02:29:28.447Z,98668.06
2022-10-19T02:31:55.321Z,98665.28
2022-10-19T02:34:22.389Z,98664.69
2022-10-19T02:36:49.574Z,98644.34
2022-10-19T02:39:16.819Z,98660.06
2022-10-19T02:41:59.788Z,98637.59
2022-10-19T02:44:34.849Z,98646.78
2022-10-19T02:47:23.799Z,98633.34
2022-10-19T02:49:51.719Z,98654.78
2022-10-19T02:52:18.561Z,98635.06
2022-10-19T02:54:45.600Z,98658.75
2022-10-19T02:57:38.243Z,98610.75
2022-10-19T03:00:06.898Z,98620.47
2022-10-19T03:02:33.747Z,98600.66
2022-10-19T03:05:00.574Z,98578.38
2022-10-19T03:07:27.469Z,98609.94
2022-10-19T03:10:00.393Z,98581.56
2022-10-19T03:12:27.246Z,98605.59
2022-10-19T03:14:54.039Z,98603.19
2022-10-19T03:17:21.202Z,98616.31
2022-10-19T03:19:48.141Z,98623.09
2022-10-19T03:22:15.273Z,98623.56
2022-10-19T03:24:42.132Z,98622.56
2022-10-19T03:27:09.283Z,98601.91
2022-10-19T03:29:42.193Z,98577.13
2022-10-19T03:32:09.263Z,98569.44
2022-10-19T03:34:36.124Z,98573.78
2022-10-19T03:37:03.025Z,98567.75
2022-10-19T03:39:29.899Z,98582.75
2022-10-19T03:41:56.715Z,98563.84
2022-10-19T03:44:23.481Z,98545.88
2022-10-19T03:46:50.404Z,98551.28
2022-10-19T03:49:17.242Z,98579.38
2022-10-19T03:51:44.108Z,98588.19
2022-10-19T03:54:16.262Z,98536.91
2022-10-19T03:56:43.737Z,98558.88
2022-10-19T03:59:14.682Z,98533.56
2022-10-19T04:01:44.436Z,98510.16
2022-10-19T04:04:15.649Z,98510.22
2022-10-19T04:06:44.645Z,98533.78
2022-10-19T04:09:19.365Z,98543.66
2022-10-19T04:11:46.813Z,98517.19
2022-10-19T04:14:22.865Z,98528.19
2022-10-19T04:16:59.206Z,98501.44
2022-10-19T04:19:26.034Z,98542.94
2022-10-19T04:21:52.929Z,98527.44
2022-10-19T04:24:19.845Z,98525.69
2022-10-19T04:26:56.750Z,98539.34
2022-10-19T04:29:29.413Z,98477.97
2022-10-19T04:31:57.888Z,98466.31
2022-10-19T04:34:24.781Z,98474.75
2022-10-19T04:36:53.402Z,98465.16
2022-10-19T04:39:20.235Z,98552.53
2022-10-19T04:41:58.759Z,98581.25
2022-10-19T04:44:25.612Z,98556.56
2022-10-19T04:46:52.431Z,98524.13
2022-10-19T04:49:20.290Z,98514.84
2022-10-19T04:51:47.172Z,98452.75
2022-10-19T04:54:14.148Z,98455.53
2022-10-19T04:56:41.255Z,98449.28
2022-10-19T04:59:09.986Z,98473.44
2022-10-19T05:01:36.924Z,98458.38
2022-10-19T05:04:05.045Z,98429.66
2022-10-19T05:06:32.193Z,98431.28
2022-10-19T05:08:59.957Z,98426.75
2022-10-19T05:11:27.768Z,98428.38
2022-10-19T05:13:55.647Z,98456.00
2022-10-19T05:16:23.954Z,98428.84
2022-10-19T05:19:20.618Z,98436.56
2022-10-19T05:21:47.470Z,98431.50
2022-10-19T05:24:14.384Z,98427.69
2022-10-19T05:26:43.736Z,98412.16
2022-10-19T05:29:31.951Z,98400.25
2022-10-19T05:31:58.899Z,98409.97
2022-10-19T05:34:25.735Z,98414.09
2022-10-19T05:36:55.465Z,98402.94
2022-10-19T05:39:22.759Z,98390.13
2022-10-19T05:41:49.879Z,98401.19
2022-10-19T05:44:19.333Z,98421.88
2022-10-19T05:46:50.316Z,98373.53
2022-10-19T05:49:19.658Z,98424.88
2022-10-19T05:51:46.609Z,98409.00
2022-10-19T05:54:14.562Z,98414.06
2022-10-19T05:56:42.344Z,98393.78
2022-10-19T05:59:13.888Z,98389.16
2022-10-19T06:01:40.836Z,98378.16
2022-10-19T06:04:07.841Z,98390.63
2022-10-19T06:06:34.787Z,98361.56
2022-10-19T06:09:01.717Z,98366.09
2022-10-19T06:11:31.038Z,98370.13
2022-10-19T06:13:59.663Z,98348.97
2022-10-19T06:16:28.052Z,98336.94
2022-10-19T06:18:56.530Z,98352.56
2022-10-19T06:21:28.081Z,98346.97
2022-10-19T06:24:02.887Z,98343.06
2022-10-19T06:26:31.612Z,98343.78
2022-10-19T06:29:00.694Z,98325.19
2022-10-19T06:31:29.527Z,98315.97
2022-10-19T06:33:56.478Z,98328.47
2022-10-19T06:36:26.015Z,98327.94
2022-10-19T06:38:53.096Z,98322.94
2022-10-19T06:41:20.659Z,98320.41
2022-10-19T06:43:55.361Z,98311.50
2022-10-19T06:46:26.827Z,98298.56
2022-10-19T06:49:02.068Z,98312.63
2022-10-19T06:51:31.214Z,98306.34
2022-10-19T06:53:58.041Z,98296.88
2022-10-19T06:56:28.015Z,98281.53
2022-10-19T06:58:59.157Z,98298.72
2022-10-19T07:01:40.500Z,98283.34
2022-10-19T07:04:08.129Z,98278.06
2022-10-19T07:06:35.890Z,98296.00
2022-10-19T07:09:05.669Z,98255.72
2022-10-19T07:11:32.790Z,98255.13
2022-10-19T07:13:59.642Z,98252.81
2022-10-19T07:16:26.467Z,98270.66
2022-10-19T07:18:53.792Z,98268.47
2022-10-19T07:21:26.760Z,98255.28
2022-10-19T07:23:54.452Z,98278.66
2022-10-19T07:26:24.944Z,98279.78
2022-10-19T07:28:58.011Z,98264.19
2022-10-19T07:31:32.784Z,98251.81
2022-10-19T07:34:09.469Z,98239.34
2022-10-19T07:36:59.743Z,98240.09
2022-10-19T07:39:26.961Z,98222.66
2022-10-19T07:41:54.352Z,98237.13
2022-10-19T07:44:24.474Z,98208.31
2022-10-19T07:46:52.249Z,98216.06
2022-10-19T07:49:25.559Z,98223.31
2022-10-19T07:52:01.716Z,98182.78
2022-10-19T07:54:29.617Z,98211.13
2022-10-19T07:56:58.824Z,98212.16
2022-10-19T07:59:26.126Z,98201.06
2022-10-19T08:01:53.203Z,98207.41
2022-10-19T08:07:07.200Z,98184.69
2022-10-19T08:09:52.180Z,98189.53
2022-10-19T08:12:20.651Z,98188.41
2022-10-19T08:14:47.421Z,98160.56
2022-10-19T08:17:40.133Z,98175.75
2022-10-19T08:20:08.350Z,98180.44
2022-10-19T08:22:35.487Z,98159.97
2022-10-19T08:25:03.005Z,98178.53
2022-10-19T08:27:29.804Z,98141.59
2022-10-19T08:29:56.726Z,98145.56
2022-10-19T08:32:23.930Z,98157.94
2022-10-19T08:34:50.952Z,98126.09
2022-10-19T08:37:32.578Z,98169.41
2022-10-19T08:40:06.376Z,98150.72
2022-10-19T08:43:13.238Z,98158.97
2022-10-19T08:46:24.731Z,98130.84
2022-10-19T08:48:53.018Z,98121.81
2022-10-19T08:51:22.950Z,98114.31
2022-10-19T08:54:00.706Z,98126.38
2022-10-19T08:57:00.902Z,98095.44
2022-10-19T09:00:06.716Z,98111.22
2022-10-19T09:02:53.612Z,98084.56
2022-10-19T09:05:52.921Z,98104.00
2022-10-19T09:08:21.185Z,98103.72
2022-10-19T09:10:53.592Z,98077.34
2022-10-19T09:16:20.533Z,98086.78
2022-10-19T09:18:57.602Z,98093.41
2022-10-19T09:21:47.118Z,98084.13
2022-10-19T09:24:36.875Z,98091.06
2022-10-19T09:27:18.962Z,98099.28
2022-10-19T09:29:56.461Z,98088.69
2022-10-19T09:32:31.407Z,98084.84
2022-10-19T09:35:20.834Z,98085.00
2022-10-19T09:37:50.428Z,98072.03
2022-10-19T09:40:24.333Z,98070.16
2022-10-19T09:42:51.342Z,98059.97
2022-10-19T09:45:23.916Z,98067.34
2022-10-19T09:47:50.778Z,98063.19
2022-10-19T09:50:23.298Z,98063.81
2022-10-19T09:52:56.808Z,98068.81
2022-10-19T09:56:00.441Z,98079.13
2022-10-19T09:58:32.880Z,98080.31
2022-10-19T10:01:02.130Z,98095.31
2022-10-19T10:03:31.003Z,98082.94
2022-10-19T10:06:02.817Z,98075.59
2022-10-19T10:08:33.419Z,98081.19
2022-10-19T10:11:10.431Z,98096.78
2022-10-19T10:13:43.729Z,98108.41
2022-10-19T10:16:15.501Z,98094.66
2022-10-19T10:18:55.841Z,98091.88
2022-10-19T10:21:26.299Z,98101.44
2022-10-19T10:24:00.443Z,98085.81
2022-10-19T10:26:28.531Z,98061.00
2022-10-19T10:29:26.490Z,98089.38
2022-10-19T10:31:58.940Z,98078.19
2022-10-19T10:34:49.879Z,98088.16
2022-10-19T10:37:20.747Z,98061.22
2022-10-19T10:39:56.689Z,98060.25
2022-10-19T10:42:34.968Z,98061.44
2022-10-19T10:45:03.791Z,98058.00
2022-10-19T10:47:31.431Z,98098.88
2022-10-19T10:50:27.047Z,98097.56
2022-10-19T10:53:02.221Z,98093.56
2022-10-19T10:55:38.361Z,98089.97
2022-10-19T10:58:16.456Z,98112.34
2022-10-19T11:00:45.474Z,98109.16
2022-10-19T11:03:22.010Z,98119.66
2022-10-19T11:05:56.425Z,98125.53
2022-10-19T11:08:46.100Z,98115.84
2022-10-19T11:11:26.913Z,98105.63
2022-10-19T11:13:59.387Z,98086.88
2022-10-19T11:16:35.817Z,98104.31
2022-10-19T11:19:20.270Z,98116.34
2022-10-19T11:22:27.083Z,98097.13
2022-10-19T11:25:38.899Z,98114.56
2022-10-19T11:28:24.147Z,98105.91
2022-10-19T11:30:57.373Z,98117.63
2022-10-19T11:33:38.580Z,98104.81
2022-10-19T11:36:32.064Z,98102.41
2022-10-19T11:39:18.441Z,98114.25
2022-10-19T11:41:59.665Z,98106.22
2022-10-19T11:44:35.580Z,98116.03
2022-10-19T11:50:54.149Z,98095.28
2022-10-19T11:54:01.742Z,98101.31
2022-10-19T11:57:01.574Z,98118.34
2022-10-19T12:00:13.909Z,98111.06
2022-10-19T12:03:06.140Z,98103.53
2022-10-19T12:05:51.579Z,98133.41
2022-10-19T12:08:40.822Z,98139.25
2022-10-19T12:11:10.638Z,98141.78
2022-10-19T12:13:47.708Z,98126.81
2022-10-19T12:16:17.345Z,98121.19
2022-10-19T12:18:50.266Z,98131.63
2022-10-19T12:21:41.963Z,98133.63
2022-10-19T12:24:18.123Z,98102.16
2022-10-19T12:26:46.087Z,98133.63
2022-10-19T12:29:19.487Z,98130.66
2022-10-19T12:31:47.618Z,98125.06
2022-10-19T12:34:32.800Z,98134.31
2022-10-19T12:37:43.964Z,98109.94
2022-10-19T12:40:25.360Z,98127.56
2022-10-19T12:43:23.609Z,98129.91
2022-10-19T12:46:10.673Z,98131.22
2022-10-19T12:48:37.584Z,98133.28
2022-10-19T12:51:10.379Z,98130.09
2022-10-19T12:53:46.915Z,98131.06
2022-10-19T12:56:26.294Z,98152.81
2022-10-19T12:59:01.332Z,98123.25
2022-10-19T13:01:34.058Z,98141.19
2022-10-19T13:04:09.601Z,98140.31
2022-10-19T13:06:43.974Z,98125.81
2022-10-19T13:09:24.539Z,98142.94
2022-10-19T13:12:19.615Z,98159.88
2022-10-19T13:14:58.903Z,98136.81
2022-10-19T13:17:53.584Z,98145.28
2022-10-19T13:20:20.471Z,98139.63
2022-10-19T13:23:07.528Z,98143.06
2022-10-19T13:25:38.790Z,98144.00
2022-10-19T13:28:08.818Z,98120.31
2022-10-19T13:30:35.562Z,98141.41
2022-10-19T13:33:27.386Z,98156.88
2022-10-19T13:36:00.519Z,98169.97
2022-10-19T13:41:18.675Z,98150.59
2022-10-19T13:44:08.750Z,98158.41
2022-10-19T13:47:01.256Z,98152.91
2022-10-19T13:50:01.558Z,98166.91
2022-10-19T13:53:06.980Z,98141.94
2022-10-19T13:55:52.511Z,98180.28
2022-10-19T13:58:19.425Z,98171.03
2022-10-19T14:01:12.005Z,98160.53
2022-10-19T14:04:15.375Z,98145.56
2022-10-19T14:06:57.110Z,98154.97
2022-10-19T14:09:57.641Z,98149.75
2022-10-19T14:12:28.146Z,98166.50
2022-10-19T14:14:55.166Z,98165.50
2022-10-19T14:17:27.739Z,98159.03
2022-10-19T14:20:01.989Z,98155.81
2022-10-19T14:22:31.909Z,98178.38
2022-10-19T14:25:17.068Z,98179.84
2022-10-19T14:27:47.804Z,98168.72
2022-10-19T14:30:44.410Z,98179.69
2022-10-19T14:33:16.900Z,98191.81
2022-10-19T14:35:50.120Z,98195.06
2022-10-19T14:38:30.037Z,98190.84
2022-10-19T14:40:57.543Z,98202.09
2022-10-19T14:43:53.297Z,98205.25
2022-10-19T14:46:31.972Z,98211.19
2022-10-19T14:49:04.809Z,98199.16
2022-10-19T14:51:58.808Z,98209.84
2022-10-19T14:54:34.443Z,98211.06
2022-10-19T14:57:29.152Z,98161.88
2022-10-19T15:00:01.649Z,98198.69
2022-10-19T15:02:42.440Z,98205.69
2022-10-19T15:05:20.440Z,98195.66
2022-10-19T15:07:48.302Z,98209.81
2022-10-19T15:10:23.540Z,98209.84
2022-10-19T15:12:52.927Z,98229.66
2022-10-19T15:15:27.830Z,98228.63
2022-10-19T15:17:56.305Z,98218.00
2022-10-19T15:20:30.366Z,98222.88
2022-10-19T15:22:58.467Z,98233.06
2022-10-19T15:25:36.776Z,98232.22
2022-10-19T15:28:37.546Z,98235.06
2022-10-19T15:31:15.448Z,98244.00
2022-10-19T15:33:55.045Z,98244.69
2022-10-19T15:36:23.490Z,98248.53
2022-10-19T15:39:17.718Z,98244.56
2022-10-19T15:41:52.079Z,98248.41
2022-10-19T15:44:43.008Z,98255.09
2022-10-19T15:47:20.423Z,98252.22
2022-10-19T15:49:56.317Z,98269.34
2022-10-19T15:52:28.934Z,98242.13
2022-10-19T15:54:58.499Z,98294.31
2022-10-19T15:57:34.085Z,98253.00
2022-10-19T16:00:17.173Z,98280.53
2022-10-19T16:02:44.551Z,98314.38
2022-10-19T16:05:12.461Z,98309.44
2022-10-19T16:07:42.317Z,98299.06
2022-10-19T16:10:17.003Z,98296.75
2022-10-19T16:12:44.077Z,98293.31
2022-10-19T16:15:16.048Z,98289.59
2022-10-19T16:18:07.214Z,98291.47
2022-10-19T16:20:34.288Z,98303.00
2022-10-19T16:23:01.101Z,98310.41
2022-10-19T16:25:28.144Z,98320.25
2022-10-19T16:27:55.008Z,98310.03
2022-10-19T16:30:22.367Z,98324.06
2022-10-19T16:32:49.568Z,98327.13
2022-10-19T16:35:42.212Z,98321.59
2022-10-19T16:38:09.198Z,98313.00
2022-10-19T16:40:36.186Z,98330.28
2022-10-19T16:43:05.566Z,98314.34
2022-10-19T16:45:32.823Z,98323.88
2022-10-19T16:47:59.689Z,98316.91
2022-10-19T16:50:26.573Z,98341.75
2022-10-19T16:53:14.239Z,98325.47
2022-10-19T16:55:41.456Z,98338.06
2022-10-19T16:58:08.421Z,98289.31
2022-10-19T17:00:36.003Z,98322.06
2022-10-19T17:03:03.129Z,98323.31
2022-10-19T17:05:29.947Z,98339.94
2022-10-19T17:07:56.930Z,98328.88
2022-10-19T17:10:24.663Z,98304.94
2022-10-19T17:12:51.525Z,98333.41
2022-10-19T17:15:41.449Z,98333.47
2022-10-19T17:18:05.656Z,98336.91
2022-10-19T17:20:33.604Z,98312.22
2022-10-19T17:23:01.004Z,98340.28
2022-10-19T17:25:27.993Z,98341.03
2022-10-19T17:27:58.107Z,98349.00
2022-10-19T17:30:24.929Z,98325.09
2022-10-19T17:32:51.761Z,98345.47
2022-10-19T17:35:19.014Z,98338.44
2022-10-19T17:37:45.851Z,98325.78
2022-10-19T17:40:16.812Z,98316.19
2022-10-19T17:42:48.176Z,98352.88
2022-10-19T17:45:14.988Z,98342.97
2022-10-19T17:47:41.904Z,98352.06
2022-10-19T17:50:09.312Z,98345.22
2022-10-19T17:52:36.174Z,98357.44
2022-10-19T17:55:18.508Z,98351.66
2022-10-19T17:57:45.593Z,98353.56
2022-10-19T18:00:13.254Z,98344.88
2022-10-19T18:02:40.389Z,98344.50
2022-10-19T18:05:07.865Z,98338.53
2022-10-19T18:07:35.192Z,98355.97
2022-10-19T18:10:02.278Z,98346.81
2022-10-19T18:12:29.296Z,98370.78
2022-10-19T18:14:56.121Z,98357.81
2022-10-19T18:17:26.896Z,98358.19
2022-10-19T18:19:54.800Z,98330.81
2022-10-19T18:22:21.574Z,98345.66
2022-10-19T18:24:48.480Z,98357.78
2022-10-19T18:27:15.629Z,98363.03
2022-10-19T18:29:42.502Z,98351.56
2022-10-19T18:32:11.257Z,98376.63
2022-10-19T18:34:38.723Z,98370.00
2022-10-19T18:37:05.540Z,98392.41
2022-10-19T18:39:33.148Z,98396.56
2022-10-19T18:42:00.155Z,98380.75
2022-10-19T18:44:45.754Z,98431.91
2022-10-19T18:47:12.673Z,98388.91
2022-10-19T18:49:39.495Z,98384.41
2022-10-19T18:52:06.691Z,98389.63
2022-10-19T18:54:33.838Z,98391.63
2022-10-19T18:57:00.780Z,98393.22
2022-10-19T19:01:59.534Z,98401.31
2022-10-19T19:04:26.571Z,98413.34
2022-10-19T19:06:53.546Z,98391.50
2022-10-19T19:09:20.595Z,98391.91
2022-10-19T19:11:48.033Z,98403.88
2022-10-19T19:14:17.859Z,98405.81
2022-10-19T19:16:45.553Z,98410.97
2022-10-19T19:19:14.540Z,98394.88
2022-10-19T19:21:42.443Z,98403.78
2022-10-19T19:24:16.496Z,98399.81
2022-10-19T19:26:46.779Z,98400.75
2022-10-19T19:29:14.104Z,98421.03
2022-10-19T19:31:40.996Z,98403.09
2022-10-19T19:34:07.979Z,98394.41
2022-10-19T19:36:36.049Z,98397.03
2022-10-19T19:39:04.492Z,98391.22
2022-10-19T19:41:31.560Z,98411.41
2022-10-19T19:44:17.647Z,98413.59
2022-10-19T19:46:44.735Z,98404.56
2022-10-19T19:49:11.907Z,98405.91
2022-10-19T19:51:39.036Z,98412.44
2022-10-19T19:54:06.155Z,98410.28
2022-10-19T19:56:33.224Z,98419.78
2022-10-19T19:59:01.431Z,98417.72
2022-10-19T20:01:30.679Z,98418.72
2022-10-19T20:03:59.105Z,98423.19
2022-10-19T20:06:26.961Z,98399.72
2022-10-19T20:08:55.322Z,98412.63
2022-10-19T20:11:24.125Z,98430.78
2022-10-19T20:13:51.013Z,98403.53
2022-10-19T20:16:22.751Z,98398.31
2022-10-19T20:18:55.864Z,98397.53
2022-10-19T20:21:22.670Z,98403.31
2022-10-19T20:23:51.229Z,98439.38
2022-10-19T20:26:23.043Z,98414.00
2022-10-19T20:28:50.678Z,98405.56
2022-10-19T20:31:18.555Z,98419.78
2022-10-19T20:33:46.585Z,98420.78
2022-10-19T20:36:17.238Z,98444.59
2022-10-19T20:38:56.366Z,98428.84
2022-10-19T20:41:25.901Z,98385.84
2022-10-19T20:43:54.122Z,98396.25
2022-10-19T20:46:24.221Z,98403.00
2022-10-19T20:48:52.237Z,98395.56
2022-10-19T20:51:23.044Z,98407.56
2022-10-19T20:53:52.861Z,98407.56
2022-10-19T20:56:55.364Z,98408.34
2022-10-19T20:59:23.539Z,98414.50
2022-10-19T21:01:52.242Z,98390.59
2022-10-19T21:04:19.846Z,98392.00
2022-10-19T21:06:49.221Z,98411.38
2022-10-19T21:09:18.619Z,98402.47
2022-10-19T21:11:46.342Z,98410.84
2022-10-19T21:14:16.091Z,98393.66
2022-10-19T21:16:43.120Z,98401.28
2022-10-19T21:19:23.584Z,98405.69
2022-10-19T21:21:56.961Z,98417.09
2022-10-19T21:24:26.851Z,98396.72
2022-10-19T21:26:54.082Z,98458.81
2022-10-19T21:29:37.673Z,98408.94
2022-10-19T21:32:04.574Z,98409.13
2022-10-19T21:34:32.121Z,98396.16
2022-10-19T21:36:59.756Z,98392.84
2022-10-19T21:39:26.617Z,98383.25
2022-10-19T21:41:53.515Z,98408.84
2022-10-19T21:44:20.719Z,98393.81
2022-10-19T21:46:48.049Z,98393.47
2022-10-19T21:49:15.122Z,98376.00
2022-10-19T21:51:49.095Z,98400.50
2022-10-19T21:54:19.200Z,98383.94
2022-10-19T21:56:47.487Z,98401.94
2022-10-19T21:59:15.334Z,98398.16
2022-10-19T22:01:42.284Z,98402.06
2022-10-19T22:04:13.248Z,98399.06
2022-10-19T22:06:40.972Z,98402.56
2022-10-19T22:09:09.831Z,98390.56
2022-10-19T22:11:36.921Z,98428.81
2022-10-19T22:14:04.831Z,98422.34
2022-10-19T22:16:33.457Z,98403.56
2022-10-19T22:19:00.279Z,98413.41
2022-10-19T22:21:30.043Z,98428.22
2022-10-19T22:24:10.472Z,98420.63
2022-10-19T22:26:40.584Z,98431.44
2022-10-19T22:29:08.461Z,98435.75
2022-10-19T22:31:36.907Z,98421.78
2022-10-19T22:34:07.337Z,98420.63
2022-10-19T22:36:43.658Z,98438.25
2022-10-19T22:39:11.062Z,98424.88
2022-10-19T22:42:03.965Z,98441.16
2022-10-19T22:44:31.170Z,98420.56
2022-10-19T22:46:58.740Z,98444.81
2022-10-19T22:49:25.611Z,98422.34
2022-10-19T22:51:52.436Z,98441.06
2022-10-19T22:54:19.420Z,98445.25
2022-10-19T22:56:46.227Z,98432.66
2022-10-19T22:59:13.170Z,98435.69
2022-10-19T23:02:03.641Z,98443.28
2022-10-19T23:04:30.713Z,98425.25
2022-10-19T23:06:57.529Z,98449.38
2022-10-19T23:09:24.443Z,98436.72
2022-10-19T23:11:51.252Z,98412.25
2022-10-19T23:14:18.172Z,98429.97
2022-10-19T23:16:45.013Z,98425.03
2022-10-19T23:19:11.961Z,98421.50
2022-10-19T23:21:38.849Z,98409.00
2022-10-19T23:24:05.906Z,98436.69
2022-10-19T23:26:32.743Z,98415.69
2022-10-19T23:28:59.647Z,98421.50
2022-10-19T23:31:27.348Z,98440.94
2022-10-19T23:33:54.867Z,98438.28
2022-10-19T23:36:24.476Z,98424.72
2022-10-19T23:38:52.280Z,98423.53
2022-10-19T23:41:20.164Z,98437.59
2022-10-19T23:43:47.072Z,98434.47
2022-10-19T23:46:14.793Z,98457.84
2022-10-19T23:48:41.773Z,98444.59
2022-10-19T23:51:12.282Z,98448.53
2022-10-19T23:53:41.513Z,98443.38
2022-10-19T23:56:15.901Z,98440.78
2022-10-19T23:58:43.085Z,98432.13
